sensor_id;sensor_type;location;lat;lon;timestamp;temperature;humidity
2202;DHT22;1107;48.654;9.250;2023-12-20T00:01:29;5.70;99.90
2202;DHT22;1107;48.654;9.250;2023-12-20T00:03:55;5.70;99.90
2202;DHT22;1107;48.654;9.250;2023-12-20T00:06:22;5.70;99.90
2202;DHT22;1107;48.654;9.250;2023-12-20T00:08:48;5.70;99.90
2202;DHT22;1107;48.654;9.250;2023-12-20T00:11:15;5.70;99.90
2202;DHT22;1107;48.654;9.250;2023-12-20T00:13:42;5.70;99.90
2202;DHT22;1107;48.654;9.250;2023-12-20T00:16:09;5.70;99.90
2202;DHT22;1107;48.654;9.250;2023-12-20T00:18:37;5.70;99.90
2202;DHT22;1107;48.654;9.250;2023-12-20T00:21:03;5.70;99.90
2202;DHT22;1107;48.654;9.250;2023-12-20T00:23:30;5.70;99.90
2202;DHT22;1107;48.654;9.250;2023-12-20T00:25:57;5.70;99.90
2202;DHT22;1107;48.654;9.250;2023-12-20T00:28:24;5.70;99.90
2202;DHT22;1107;48.654;9.250;2023-12-20T00:30:50;5.70;99.90
2202;DHT22;1107;48.654;9.250;2023-12-20T00:33:17;5.70;99.90
2202;DHT22;1107;48.654;9.250;2023-12-20T00:35:45;5.70;99.90
2202;DHT22;1107;48.654;9.250;2023-12-20T00:38:12;5.70;99.90
2202;DHT22;1107;48.654;9.250;2023-12-20T00:40:39;5.70;99.90
2202;DHT22;1107;48.654;9.250;2023-12-20T00:43:05;5.70;99.90
2202;DHT22;1107;48.654;9.250;2023-12-20T00:45:32;5.70;99.90
2202;DHT22;1107;48.654;9.250;2023-12-20T00:47:59;5.70;99.90
2202;DHT22;1107;48.654;9.250;2023-12-20T00:50:25;5.70;99.90
2202;DHT22;1107;48.654;9.250;2023-12-20T00:52:53;5.70;99.90
2202;DHT22;1107;48.654;9.250;2023-12-20T00:55:21;5.80;99.90
2202;DHT22;1107;48.654;9.250;2023-12-20T00:57:48;5.80;99.90
2202;DHT22;1107;48.654;9.250;2023-12-20T01:00:15;5.80;99.90
2202;DHT22;1107;48.654;9.250;2023-12-20T01:02:42;5.90;99.90
2202;DHT22;1107;48.654;9.250;2023-12-20T01:05:08;5.90;99.90
2202;DHT22;1107;48.654;9.250;2023-12-20T01:07:35;5.90;99.90
2202;DHT22;1107;48.654;9.250;2023-12-20T01:10:03;5.90;99.90
2202;DHT22;1107;48.654;9.250;2023-12-20T01:12:30;5.90;99.90
2202;DHT22;1107;48.654;9.250;2023-12-20T01:14:57;5.90;99.90
2202;DHT22;1107;48.654;9.250;2023-12-20T01:17:24;5.90;99.90
2202;DHT22;1107;48.654;9.250;2023-12-20T01:19:51;5.90;99.90
2202;DHT22;1107;48.654;9.250;2023-12-20T01:22:17;5.90;99.90
2202;DHT22;1107;48.654;9.250;2023-12-20T01:24:44;5.90;99.90
2202;DHT22;1107;48.654;9.250;2023-12-20T01:27:12;5.90;99.90
2202;DHT22;1107;48.654;9.250;2023-12-20T01:29:39;5.80;99.90
2202;DHT22;1107;48.654;9.250;2023-12-20T01:32:06;5.90;99.90
2202;DHT22;1107;48.654;9.250;2023-12-20T01:34:32;5.80;99.90
2202;DHT22;1107;48.654;9.250;2023-12-20T01:36:59;5.80;99.90
2202;DHT22;1107;48.654;9.250;2023-12-20T01:39:26;5.80;99.90
2202;DHT22;1107;48.654;9.250;2023-12-20T01:41:53;5.80;99.90
2202;DHT22;1107;48.654;9.250;2023-12-20T01:44:21;5.70;99.90
2202;DHT22;1107;48.654;9.250;2023-12-20T01:46:53;5.70;99.90
2202;DHT22;1107;48.654;9.250;2023-12-20T01:49:20;5.60;99.90
2202;DHT22;1107;48.654;9.250;2023-12-20T01:51:47;5.60;99.90
2202;DHT22;1107;48.654;9.250;2023-12-20T01:54:14;5.60;99.90
2202;DHT22;1107;48.654;9.250;2023-12-20T01:56:41;5.60;99.90
2202;DHT22;1107;48.654;9.250;2023-12-20T01:59:08;5.50;99.90
2202;DHT22;1107;48.654;9.250;2023-12-20T02:01:36;5.50;99.90
2202;DHT22;1107;48.654;9.250;2023-12-20T02:04:03;5.50;99.90
2202;DHT22;1107;48.654;9.250;2023-12-20T02:06:30;5.50;99.90
2202;DHT22;1107;48.654;9.250;2023-12-20T02:08:57;5.40;99.90
2202;DHT22;1107;48.654;9.250;2023-12-20T02:11:24;5.40;99.90
2202;DHT22;1107;48.654;9.250;2023-12-20T02:13:51;5.40;99.90
2202;DHT22;1107;48.654;9.250;2023-12-20T02:16:18;5.40;99.90
2202;DHT22;1107;48.654;9.250;2023-12-20T02:18:46;5.40;99.90
2202;DHT22;1107;48.654;9.250;2023-12-20T02:21:13;5.40;99.90
2202;DHT22;1107;48.654;9.250;2023-12-20T02:23:42;5.40;99.90
2202;DHT22;1107;48.654;9.250;2023-12-20T02:26:09;5.40;99.90
2202;DHT22;1107;48.654;9.250;2023-12-20T02:28:35;5.40;99.90
2202;DHT22;1107;48.654;9.250;2023-12-20T02:31:03;5.40;99.90
2202;DHT22;1107;48.654;9.250;2023-12-20T02:33:29;5.40;99.90
2202;DHT22;1107;48.654;9.250;2023-12-20T02:35:56;5.40;99.90
2202;DHT22;1107;48.654;9.250;2023-12-20T02:38:23;5.40;99.90
2202;DHT22;1107;48.654;9.250;2023-12-20T02:40:51;5.50;99.90
2202;DHT22;1107;48.654;9.250;2023-12-20T02:43:18;5.40;99.90
2202;DHT22;1107;48.654;9.250;2023-12-20T02:45:44;5.50;99.90
2202;DHT22;1107;48.654;9.250;2023-12-20T02:48:11;5.50;99.90
2202;DHT22;1107;48.654;9.250;2023-12-20T02:50:38;5.50;99.90
2202;DHT22;1107;48.654;9.250;2023-12-20T02:53:05;5.50;99.90
2202;DHT22;1107;48.654;9.250;2023-12-20T02:55:31;5.50;99.90
2202;DHT22;1107;48.654;9.250;2023-12-20T02:57:59;5.50;99.90
2202;DHT22;1107;48.654;9.250;2023-12-20T03:00:26;5.50;99.90
2202;DHT22;1107;48.654;9.250;2023-12-20T03:02:53;5.50;99.90
2202;DHT22;1107;48.654;9.250;2023-12-20T03:05:19;5.50;99.90
2202;DHT22;1107;48.654;9.250;2023-12-20T03:07:46;5.60;99.90
2202;DHT22;1107;48.654;9.250;2023-12-20T03:10:13;5.60;99.90
2202;DHT22;1107;48.654;9.250;2023-12-20T03:12:40;5.60;99.90
2202;DHT22;1107;48.654;9.250;2023-12-20T03:15:08;5.60;99.90
2202;DHT22;1107;48.654;9.250;2023-12-20T03:17:35;5.60;99.90
2202;DHT22;1107;48.654;9.250;2023-12-20T03:20:02;5.60;99.90
2202;DHT22;1107;48.654;9.250;2023-12-20T03:22:29;5.60;99.90
2202;DHT22;1107;48.654;9.250;2023-12-20T03:24:56;5.60;99.90
2202;DHT22;1107;48.654;9.250;2023-12-20T03:27:22;5.60;99.90
2202;DHT22;1107;48.654;9.250;2023-12-20T03:29:49;5.60;99.90
2202;DHT22;1107;48.654;9.250;2023-12-20T03:32:17;5.60;99.90
2202;DHT22;1107;48.654;9.250;2023-12-20T03:34:44;5.60;99.90
2202;DHT22;1107;48.654;9.250;2023-12-20T03:37:10;5.60;99.90
2202;DHT22;1107;48.654;9.250;2023-12-20T03:39:37;5.60;99.90
2202;DHT22;1107;48.654;9.250;2023-12-20T03:42:04;5.60;99.90
2202;DHT22;1107;48.654;9.250;2023-12-20T03:44:31;5.60;99.90
2202;DHT22;1107;48.654;9.250;2023-12-20T03:46:57;5.60;99.90
2202;DHT22;1107;48.654;9.250;2023-12-20T03:49:25;5.50;99.90
2202;DHT22;1107;48.654;9.250;2023-12-20T03:51:52;5.50;99.90
2202;DHT22;1107;48.654;9.250;2023-12-20T03:54:19;5.50;99.90
2202;DHT22;1107;48.654;9.250;2023-12-20T03:56:45;5.50;99.90
2202;DHT22;1107;48.654;9.250;2023-12-20T03:59:12;5.50;99.90
2202;DHT22;1107;48.654;9.250;2023-12-20T04:01:42;5.50;99.90
2202;DHT22;1107;48.654;9.250;2023-12-20T04:04:09;5.50;99.90
2202;DHT22;1107;48.654;9.250;2023-12-20T04:06:37;5.50;99.90
2202;DHT22;1107;48.654;9.250;2023-12-20T04:09:04;5.50;99.90
2202;DHT22;1107;48.654;9.250;2023-12-20T04:11:31;5.40;99.90
2202;DHT22;1107;48.654;9.250;2023-12-20T04:13:57;5.40;99.90
2202;DHT22;1107;48.654;9.250;2023-12-20T04:16:24;5.40;99.90
2202;DHT22;1107;48.654;9.250;2023-12-20T04:18:51;5.40;99.90
2202;DHT22;1107;48.654;9.250;2023-12-20T04:21:18;5.40;99.90
2202;DHT22;1107;48.654;9.250;2023-12-20T04:23:46;5.40;99.90
2202;DHT22;1107;48.654;9.250;2023-12-20T04:26:12;5.40;99.90
2202;DHT22;1107;48.654;9.250;2023-12-20T04:28:39;5.40;99.90
2202;DHT22;1107;48.654;9.250;2023-12-20T04:31:06;5.30;99.90
2202;DHT22;1107;48.654;9.250;2023-12-20T04:33:32;5.40;99.90
2202;DHT22;1107;48.654;9.250;2023-12-20T04:35:59;5.30;99.90
2202;DHT22;1107;48.654;9.250;2023-12-20T04:38:26;5.40;99.90
2202;DHT22;1107;48.654;9.250;2023-12-20T04:40:54;5.40;99.90
2202;DHT22;1107;48.654;9.250;2023-12-20T04:43:21;5.30;99.90
2202;DHT22;1107;48.654;9.250;2023-12-20T04:45:48;5.40;99.90
2202;DHT22;1107;48.654;9.250;2023-12-20T04:48:14;5.30;99.90
2202;DHT22;1107;48.654;9.250;2023-12-20T04:50:41;5.30;99.90
2202;DHT22;1107;48.654;9.250;2023-12-20T04:53:08;5.30;99.90
2202;DHT22;1107;48.654;9.250;2023-12-20T04:55:34;5.30;99.90
2202;DHT22;1107;48.654;9.250;2023-12-20T04:58:03;5.30;99.90
2202;DHT22;1107;48.654;9.250;2023-12-20T05:00:30;5.30;99.90
2202;DHT22;1107;48.654;9.250;2023-12-20T05:02:56;5.30;99.90
2202;DHT22;1107;48.654;9.250;2023-12-20T05:05:23;5.30;99.90
2202;DHT22;1107;48.654;9.250;2023-12-20T05:07:50;5.30;99.90
2202;DHT22;1107;48.654;9.250;2023-12-20T05:10:18;5.30;99.90
2202;DHT22;1107;48.654;9.250;2023-12-20T05:12:44;5.30;99.90
2202;DHT22;1107;48.654;9.250;2023-12-20T05:15:12;5.30;99.90
2202;DHT22;1107;48.654;9.250;2023-12-20T05:17:39;5.30;99.90
2202;DHT22;1107;48.654;9.250;2023-12-20T05:20:06;5.30;99.90
2202;DHT22;1107;48.654;9.250;2023-12-20T05:22:33;5.30;99.90
2202;DHT22;1107;48.654;9.250;2023-12-20T05:25:00;5.30;99.90
2202;DHT22;1107;48.654;9.250;2023-12-20T05:27:27;5.30;99.90
2202;DHT22;1107;48.654;9.250;2023-12-20T05:29:53;5.30;99.90
2202;DHT22;1107;48.654;9.250;2023-12-20T05:32:24;5.30;99.90
2202;DHT22;1107;48.654;9.250;2023-12-20T05:34:50;5.30;99.90
2202;DHT22;1107;48.654;9.250;2023-12-20T05:37:17;5.20;99.90
2202;DHT22;1107;48.654;9.250;2023-12-20T05:39:44;5.20;99.90
2202;DHT22;1107;48.654;9.250;2023-12-20T05:42:11;5.20;99.90
2202;DHT22;1107;48.654;9.250;2023-12-20T05:44:37;5.20;99.90
2202;DHT22;1107;48.654;9.250;2023-12-20T05:47:04;5.10;99.90
2202;DHT22;1107;48.654;9.250;2023-12-20T05:49:32;5.20;99.90
2202;DHT22;1107;48.654;9.250;2023-12-20T05:51:59;5.20;99.90
2202;DHT22;1107;48.654;9.250;2023-12-20T05:54:26;5.20;99.90
2202;DHT22;1107;48.654;9.250;2023-12-20T05:56:52;5.20;99.90
2202;DHT22;1107;48.654;9.250;2023-12-20T05:59:19;5.10;99.90
2202;DHT22;1107;48.654;9.250;2023-12-20T06:01:46;5.20;99.90
2202;DHT22;1107;48.654;9.250;2023-12-20T06:04:12;5.10;99.90
2202;DHT22;1107;48.654;9.250;2023-12-20T06:06:43;5.10;99.90
2202;DHT22;1107;48.654;9.250;2023-12-20T06:09:10;5.10;99.90
2202;DHT22;1107;48.654;9.250;2023-12-20T06:11:37;5.10;99.90
2202;DHT22;1107;48.654;9.250;2023-12-20T06:14:04;5.10;99.90
2202;DHT22;1107;48.654;9.250;2023-12-20T06:16:30;5.10;99.90
2202;DHT22;1107;48.654;9.250;2023-12-20T06:18:57;5.00;99.90
2202;DHT22;1107;48.654;9.250;2023-12-20T06:21:24;5.00;99.90
2202;DHT22;1107;48.654;9.250;2023-12-20T06:23:52;5.00;99.90
2202;DHT22;1107;48.654;9.250;2023-12-20T06:26:19;5.00;99.90
2202;DHT22;1107;48.654;9.250;2023-12-20T06:28:45;5.00;99.90
2202;DHT22;1107;48.654;9.250;2023-12-20T06:31:12;5.00;99.90
2202;DHT22;1107;48.654;9.250;2023-12-20T06:33:39;5.00;99.90
2202;DHT22;1107;48.654;9.250;2023-12-20T06:36:07;5.00;99.90
2202;DHT22;1107;48.654;9.250;2023-12-20T06:38:34;5.10;99.90
2202;DHT22;1107;48.654;9.250;2023-12-20T06:41:02;5.00;99.90
2202;DHT22;1107;48.654;9.250;2023-12-20T06:43:29;5.00;99.90
2202;DHT22;1107;48.654;9.250;2023-12-20T06:45:56;5.00;99.90
2202;DHT22;1107;48.654;9.250;2023-12-20T06:48:23;5.00;99.90
2202;DHT22;1107;48.654;9.250;2023-12-20T06:50:50;5.10;99.90
2202;DHT22;1107;48.654;9.250;2023-12-20T06:53:16;5.00;99.90
2202;DHT22;1107;48.654;9.250;2023-12-20T06:55:43;5.00;99.90
2202;DHT22;1107;48.654;9.250;2023-12-20T06:58:11;5.00;99.90
2202;DHT22;1107;48.654;9.250;2023-12-20T07:00:38;5.00;99.90
2202;DHT22;1107;48.654;9.250;2023-12-20T07:03:04;5.00;99.90
2202;DHT22;1107;48.654;9.250;2023-12-20T07:05:31;5.00;99.90
2202;DHT22;1107;48.654;9.250;2023-12-20T07:07:58;5.00;99.90
2202;DHT22;1107;48.654;9.250;2023-12-20T07:10:25;5.00;99.90
2202;DHT22;1107;48.654;9.250;2023-12-20T07:12:52;5.00;99.90
2202;DHT22;1107;48.654;9.250;2023-12-20T07:15:21;5.00;99.90
2202;DHT22;1107;48.654;9.250;2023-12-20T07:17:48;5.00;99.90
2202;DHT22;1107;48.654;9.250;2023-12-20T07:20:15;5.00;99.90
2202;DHT22;1107;48.654;9.250;2023-12-20T07:22:42;5.00;99.90
2202;DHT22;1107;48.654;9.250;2023-12-20T07:25:09;5.10;99.90
2202;DHT22;1107;48.654;9.250;2023-12-20T07:27:36;5.10;99.90
2202;DHT22;1107;48.654;9.250;2023-12-20T07:30:03;5.10;99.90
2202;DHT22;1107;48.654;9.250;2023-12-20T07:32:31;5.10;99.90
2202;DHT22;1107;48.654;9.250;2023-12-20T07:34:59;5.10;99.90
2202;DHT22;1107;48.654;9.250;2023-12-20T07:37:25;5.10;99.90
2202;DHT22;1107;48.654;9.250;2023-12-20T07:39:52;5.10;99.90
2202;DHT22;1107;48.654;9.250;2023-12-20T07:42:19;5.30;99.90
2202;DHT22;1107;48.654;9.250;2023-12-20T07:44:47;5.20;99.90
2202;DHT22;1107;48.654;9.250;2023-12-20T07:47:14;5.20;99.90
2202;DHT22;1107;48.654;9.250;2023-12-20T07:49:43;5.20;99.90
2202;DHT22;1107;48.654;9.250;2023-12-20T07:52:10;5.20;99.90
2202;DHT22;1107;48.654;9.250;2023-12-20T07:54:37;5.20;99.90
2202;DHT22;1107;48.654;9.250;2023-12-20T07:57:04;5.30;99.90
2202;DHT22;1107;48.654;9.250;2023-12-20T07:59:30;5.30;99.90
2202;DHT22;1107;48.654;9.250;2023-12-20T08:01:57;5.30;99.90
2202;DHT22;1107;48.654;9.250;2023-12-20T08:04:24;5.30;99.90
2202;DHT22;1107;48.654;9.250;2023-12-20T08:06:52;5.30;99.90
2202;DHT22;1107;48.654;9.250;2023-12-20T08:09:19;5.30;99.90
2202;DHT22;1107;48.654;9.250;2023-12-20T08:11:45;5.40;99.90
2202;DHT22;1107;48.654;9.250;2023-12-20T08:14:12;5.40;99.90
2202;DHT22;1107;48.654;9.250;2023-12-20T08:16:39;5.40;99.90
2202;DHT22;1107;48.654;9.250;2023-12-20T08:19:05;5.50;99.90
2202;DHT22;1107;48.654;9.250;2023-12-20T08:21:33;5.50;99.90
2202;DHT22;1107;48.654;9.250;2023-12-20T08:24:01;5.50;99.90
2202;DHT22;1107;48.654;9.250;2023-12-20T08:26:28;5.60;99.90
2202;DHT22;1107;48.654;9.250;2023-12-20T08:28:54;5.60;99.90
2202;DHT22;1107;48.654;9.250;2023-12-20T08:31:21;5.60;99.90
2202;DHT22;1107;48.654;9.250;2023-12-20T08:33:48;5.60;99.90
2202;DHT22;1107;48.654;9.250;2023-12-20T08:36:15;5.60;99.90
2202;DHT22;1107;48.654;9.250;2023-12-20T08:38:43;5.60;99.90
2202;DHT22;1107;48.654;9.250;2023-12-20T08:41:13;5.60;99.90
2202;DHT22;1107;48.654;9.250;2023-12-20T08:43:39;5.60;99.90
2202;DHT22;1107;48.654;9.250;2023-12-20T08:46:07;5.60;99.90
2202;DHT22;1107;48.654;9.250;2023-12-20T08:48:35;5.60;99.90
2202;DHT22;1107;48.654;9.250;2023-12-20T08:51:02;5.60;99.90
2202;DHT22;1107;48.654;9.250;2023-12-20T08:53:29;5.60;99.90
2202;DHT22;1107;48.654;9.250;2023-12-20T08:55:56;5.60;99.90
2202;DHT22;1107;48.654;9.250;2023-12-20T08:58:27;5.50;99.90
2202;DHT22;1107;48.654;9.250;2023-12-20T09:00:54;5.50;99.90
2202;DHT22;1107;48.654;9.250;2023-12-20T09:03:21;5.50;99.90
2202;DHT22;1107;48.654;9.250;2023-12-20T09:05:47;5.50;99.90
2202;DHT22;1107;48.654;9.250;2023-12-20T09:08:14;5.50;99.90
2202;DHT22;1107;48.654;9.250;2023-12-20T09:10:41;5.50;99.90
2202;DHT22;1107;48.654;9.250;2023-12-20T09:13:08;5.40;99.90
2202;DHT22;1107;48.654;9.250;2023-12-20T09:15:36;5.50;99.90
2202;DHT22;1107;48.654;9.250;2023-12-20T09:18:03;5.50;99.90
2202;DHT22;1107;48.654;9.250;2023-12-20T09:20:29;5.80;99.90
2202;DHT22;1107;48.654;9.250;2023-12-20T09:22:56;6.00;99.90
2202;DHT22;1107;48.654;9.250;2023-12-20T09:25:23;6.10;99.90
2202;DHT22;1107;48.654;9.250;2023-12-20T09:27:51;6.20;99.90
2202;DHT22;1107;48.654;9.250;2023-12-20T09:30:18;6.30;99.90
2202;DHT22;1107;48.654;9.250;2023-12-20T09:32:46;6.30;99.90
2202;DHT22;1107;48.654;9.250;2023-12-20T09:35:12;6.40;99.90
2202;DHT22;1107;48.654;9.250;2023-12-20T09:37:40;6.50;99.90
2202;DHT22;1107;48.654;9.250;2023-12-20T09:40:11;6.70;99.90
2202;DHT22;1107;48.654;9.250;2023-12-20T09:42:39;6.90;99.90
2202;DHT22;1107;48.654;9.250;2023-12-20T09:45:10;7.10;99.90
2202;DHT22;1107;48.654;9.250;2023-12-20T09:47:40;8.00;99.90
2202;DHT22;1107;48.654;9.250;2023-12-20T09:50:09;8.60;99.90
2202;DHT22;1107;48.654;9.250;2023-12-20T09:52:36;10.60;99.90
2202;DHT22;1107;48.654;9.250;2023-12-20T09:55:03;12.30;99.90
2202;DHT22;1107;48.654;9.250;2023-12-20T09:57:31;13.50;99.90
2202;DHT22;1107;48.654;9.250;2023-12-20T09:59:58;14.40;99.90
2202;DHT22;1107;48.654;9.250;2023-12-20T10:02:25;14.70;99.90
2202;DHT22;1107;48.654;9.250;2023-12-20T10:04:53;14.60;99.90
2202;DHT22;1107;48.654;9.250;2023-12-20T10:07:21;14.70;99.90
2202;DHT22;1107;48.654;9.250;2023-12-20T10:09:48;15.30;99.90
2202;DHT22;1107;48.654;9.250;2023-12-20T10:12:16;16.10;99.90
2202;DHT22;1107;48.654;9.250;2023-12-20T10:14:43;16.10;99.90
2202;DHT22;1107;48.654;9.250;2023-12-20T10:17:09;16.30;99.90
2202;DHT22;1107;48.654;9.250;2023-12-20T10:19:36;16.70;99.90
2202;DHT22;1107;48.654;9.250;2023-12-20T10:22:04;17.10;99.90
2202;DHT22;1107;48.654;9.250;2023-12-20T10:24:32;16.60;99.90
2202;DHT22;1107;48.654;9.250;2023-12-20T10:27:02;16.40;99.90
2202;DHT22;1107;48.654;9.250;2023-12-20T10:29:33;16.50;99.90
2202;DHT22;1107;48.654;9.250;2023-12-20T10:32:02;16.70;99.90
2202;DHT22;1107;48.654;9.250;2023-12-20T10:34:47;16.50;99.90
2202;DHT22;1107;48.654;9.250;2023-12-20T10:37:14;16.60;99.90
2202;DHT22;1107;48.654;9.250;2023-12-20T10:39:42;16.90;99.90
2202;DHT22;1107;48.654;9.250;2023-12-20T10:42:09;17.50;99.90
2202;DHT22;1107;48.654;9.250;2023-12-20T10:44:37;17.50;99.90
2202;DHT22;1107;48.654;9.250;2023-12-20T10:47:04;17.80;99.90
2202;DHT22;1107;48.654;9.250;2023-12-20T10:49:31;17.90;99.90
2202;DHT22;1107;48.654;9.250;2023-12-20T10:51:59;18.40;99.90
2202;DHT22;1107;48.654;9.250;2023-12-20T10:54:28;18.80;99.90
2202;DHT22;1107;48.654;9.250;2023-12-20T10:56:57;18.90;99.90
2202;DHT22;1107;48.654;9.250;2023-12-20T10:59:24;19.00;99.90
2202;DHT22;1107;48.654;9.250;2023-12-20T11:01:51;19.10;99.90
2202;DHT22;1107;48.654;9.250;2023-12-20T11:04:22;19.50;99.90
2202;DHT22;1107;48.654;9.250;2023-12-20T11:06:51;20.00;99.90
2202;DHT22;1107;48.654;9.250;2023-12-20T11:09:19;19.70;99.90
2202;DHT22;1107;48.654;9.250;2023-12-20T11:11:52;17.40;99.90
2202;DHT22;1107;48.654;9.250;2023-12-20T11:14:24;17.10;99.90
2202;DHT22;1107;48.654;9.250;2023-12-20T11:17:04;16.00;99.90
2202;DHT22;1107;48.654;9.250;2023-12-20T11:19:31;14.20;99.90
2202;DHT22;1107;48.654;9.250;2023-12-20T11:21:58;13.50;99.90
2202;DHT22;1107;48.654;9.250;2023-12-20T11:24:25;13.20;99.90
2202;DHT22;1107;48.654;9.250;2023-12-20T11:26:51;11.90;99.90
2202;DHT22;1107;48.654;9.250;2023-12-20T11:29:32;11.80;99.90
2202;DHT22;1107;48.654;9.250;2023-12-20T11:32:03;12.80;99.90
2202;DHT22;1107;48.654;9.250;2023-12-20T11:34:31;12.80;99.90
2202;DHT22;1107;48.654;9.250;2023-12-20T11:36:58;11.90;99.90
2202;DHT22;1107;48.654;9.250;2023-12-20T11:39:25;11.30;99.90
2202;DHT22;1107;48.654;9.250;2023-12-20T11:41:53;10.80;99.90
2202;DHT22;1107;48.654;9.250;2023-12-20T11:44:21;10.20;99.90
2202;DHT22;1107;48.654;9.250;2023-12-20T11:46:49;9.90;99.90
2202;DHT22;1107;48.654;9.250;2023-12-20T11:49:16;10.70;99.90
2202;DHT22;1107;48.654;9.250;2023-12-20T11:51:43;10.40;99.90
2202;DHT22;1107;48.654;9.250;2023-12-20T11:54:10;9.90;99.90
2202;DHT22;1107;48.654;9.250;2023-12-20T11:56:37;9.30;99.90
2202;DHT22;1107;48.654;9.250;2023-12-20T11:59:03;8.90;99.90
2202;DHT22;1107;48.654;9.250;2023-12-20T12:01:31;8.60;99.90
2202;DHT22;1107;48.654;9.250;2023-12-20T12:04:05;8.40;99.90
2202;DHT22;1107;48.654;9.250;2023-12-20T12:06:32;8.10;99.90
2202;DHT22;1107;48.654;9.250;2023-12-20T12:08:58;8.00;1.00
2202;DHT22;1107;48.654;9.250;2023-12-20T12:11:25;7.90;1.00
2202;DHT22;1107;48.654;9.250;2023-12-20T12:13:52;7.80;1.00
2202;DHT22;1107;48.654;9.250;2023-12-20T12:16:19;7.80;99.90
2202;DHT22;1107;48.654;9.250;2023-12-20T12:18:54;7.80;99.90
2202;DHT22;1107;48.654;9.250;2023-12-20T12:21:22;7.70;99.90
2202;DHT22;1107;48.654;9.250;2023-12-20T12:23:49;7.60;99.90
2202;DHT22;1107;48.654;9.250;2023-12-20T12:26:19;7.40;99.90
2202;DHT22;1107;48.654;9.250;2023-12-20T12:28:46;7.30;99.90
2202;DHT22;1107;48.654;9.250;2023-12-20T12:31:14;7.20;99.90
2202;DHT22;1107;48.654;9.250;2023-12-20T12:33:42;7.10;99.90
2202;DHT22;1107;48.654;9.250;2023-12-20T12:36:09;7.00;99.90
2202;DHT22;1107;48.654;9.250;2023-12-20T12:38:38;6.90;99.90
2202;DHT22;1107;48.654;9.250;2023-12-20T12:41:04;7.00;99.90
2202;DHT22;1107;48.654;9.250;2023-12-20T12:43:32;7.00;99.90
2202;DHT22;1107;48.654;9.250;2023-12-20T12:45:59;6.90;99.90
2202;DHT22;1107;48.654;9.250;2023-12-20T12:48:27;6.80;99.90
2202;DHT22;1107;48.654;9.250;2023-12-20T12:50:55;6.70;99.90
2202;DHT22;1107;48.654;9.250;2023-12-20T12:53:24;6.70;99.90
2202;DHT22;1107;48.654;9.250;2023-12-20T12:55:52;6.40;99.90
2202;DHT22;1107;48.654;9.250;2023-12-20T12:58:19;6.40;99.90
2202;DHT22;1107;48.654;9.250;2023-12-20T13:00:47;6.40;99.90
2202;DHT22;1107;48.654;9.250;2023-12-20T13:03:14;6.40;99.90
2202;DHT22;1107;48.654;9.250;2023-12-20T13:05:40;6.40;99.90
2202;DHT22;1107;48.654;9.250;2023-12-20T13:08:07;6.40;99.90
2202;DHT22;1107;48.654;9.250;2023-12-20T13:10:35;6.20;99.90
2202;DHT22;1107;48.654;9.250;2023-12-20T13:13:03;6.20;99.90
2202;DHT22;1107;48.654;9.250;2023-12-20T13:15:30;6.30;99.90
2202;DHT22;1107;48.654;9.250;2023-12-20T13:17:57;6.40;99.90
2202;DHT22;1107;48.654;9.250;2023-12-20T13:20:23;6.30;99.90
2202;DHT22;1107;48.654;9.250;2023-12-20T13:22:50;6.30;99.90
2202;DHT22;1107;48.654;9.250;2023-12-20T13:25:17;6.30;99.90
2202;DHT22;1107;48.654;9.250;2023-12-20T13:27:43;6.30;99.90
2202;DHT22;1107;48.654;9.250;2023-12-20T13:30:12;6.30;99.90
2202;DHT22;1107;48.654;9.250;2023-12-20T13:32:39;6.30;99.90
2202;DHT22;1107;48.654;9.250;2023-12-20T13:35:06;6.30;99.90
2202;DHT22;1107;48.654;9.250;2023-12-20T13:37:33;6.30;99.90
2202;DHT22;1107;48.654;9.250;2023-12-20T13:40:00;6.40;99.90
2202;DHT22;1107;48.654;9.250;2023-12-20T13:42:28;6.40;99.90
2202;DHT22;1107;48.654;9.250;2023-12-20T13:44:55;6.70;99.90
2202;DHT22;1107;48.654;9.250;2023-12-20T13:47:23;8.40;99.90
2202;DHT22;1107;48.654;9.250;2023-12-20T13:49:49;7.90;99.90
2202;DHT22;1107;48.654;9.250;2023-12-20T13:52:16;7.60;99.90
2202;DHT22;1107;48.654;9.250;2023-12-20T13:54:44;7.30;99.90
2202;DHT22;1107;48.654;9.250;2023-12-20T13:57:10;6.90;99.90
2202;DHT22;1107;48.654;9.250;2023-12-20T13:59:37;6.90;99.90
2202;DHT22;1107;48.654;9.250;2023-12-20T14:02:04;7.00;99.90
2202;DHT22;1107;48.654;9.250;2023-12-20T14:04:32;7.00;99.90
2202;DHT22;1107;48.654;9.250;2023-12-20T14:06:58;6.90;99.90
2202;DHT22;1107;48.654;9.250;2023-12-20T14:09:25;6.90;99.90
2202;DHT22;1107;48.654;9.250;2023-12-20T14:11:52;6.90;99.90
2202;DHT22;1107;48.654;9.250;2023-12-20T14:14:20;6.80;99.90
2202;DHT22;1107;48.654;9.250;2023-12-20T14:16:46;6.70;99.90
2202;DHT22;1107;48.654;9.250;2023-12-20T14:19:14;6.50;99.90
2202;DHT22;1107;48.654;9.250;2023-12-20T14:21:42;6.40;99.90
2202;DHT22;1107;48.654;9.250;2023-12-20T14:24:10;6.40;99.90
2202;DHT22;1107;48.654;9.250;2023-12-20T14:26:38;6.60;99.90
2202;DHT22;1107;48.654;9.250;2023-12-20T14:29:05;6.70;99.90
2202;DHT22;1107;48.654;9.250;2023-12-20T14:31:33;6.70;99.90
2202;DHT22;1107;48.654;9.250;2023-12-20T14:33:59;6.70;99.90
2202;DHT22;1107;48.654;9.250;2023-12-20T14:36:29;6.50;99.90
2202;DHT22;1107;48.654;9.250;2023-12-20T14:38:58;6.50;99.90
2202;DHT22;1107;48.654;9.250;2023-12-20T14:41:24;6.30;99.90
2202;DHT22;1107;48.654;9.250;2023-12-20T14:43:51;6.20;99.90
2202;DHT22;1107;48.654;9.250;2023-12-20T14:46:18;6.20;99.90
2202;DHT22;1107;48.654;9.250;2023-12-20T14:48:45;6.10;99.90
2202;DHT22;1107;48.654;9.250;2023-12-20T14:51:13;5.90;99.90
2202;DHT22;1107;48.654;9.250;2023-12-20T14:53:40;5.80;99.90
2202;DHT22;1107;48.654;9.250;2023-12-20T14:56:09;5.80;99.90
2202;DHT22;1107;48.654;9.250;2023-12-20T14:58:35;5.70;99.90
2202;DHT22;1107;48.654;9.250;2023-12-20T15:01:02;5.60;99.90
2202;DHT22;1107;48.654;9.250;2023-12-20T15:03:29;5.50;99.90
2202;DHT22;1107;48.654;9.250;2023-12-20T15:05:56;5.50;99.90
2202;DHT22;1107;48.654;9.250;2023-12-20T15:08:24;5.40;99.90
2202;DHT22;1107;48.654;9.250;2023-12-20T15:10:50;5.30;99.90
2202;DHT22;1107;48.654;9.250;2023-12-20T15:13:18;5.30;99.90
2202;DHT22;1107;48.654;9.250;2023-12-20T15:15:45;5.30;99.90
2202;DHT22;1107;48.654;9.250;2023-12-20T15:18:12;5.20;99.90
2202;DHT22;1107;48.654;9.250;2023-12-20T15:20:40;5.20;99.90
2202;DHT22;1107;48.654;9.250;2023-12-20T15:23:09;5.20;99.90
2202;DHT22;1107;48.654;9.250;2023-12-20T15:25:36;5.10;99.90
2202;DHT22;1107;48.654;9.250;2023-12-20T15:28:02;5.10;99.90
2202;DHT22;1107;48.654;9.250;2023-12-20T15:30:30;5.10;99.90
2202;DHT22;1107;48.654;9.250;2023-12-20T15:32:57;5.10;99.90
2202;DHT22;1107;48.654;9.250;2023-12-20T15:35:24;5.00;99.90
2202;DHT22;1107;48.654;9.250;2023-12-20T15:37:51;5.00;99.90
2202;DHT22;1107;48.654;9.250;2023-12-20T15:40:17;4.90;99.90
2202;DHT22;1107;48.654;9.250;2023-12-20T15:42:44;4.90;99.90
2202;DHT22;1107;48.654;9.250;2023-12-20T15:45:11;4.80;99.90
2202;DHT22;1107;48.654;9.250;2023-12-20T15:47:39;4.80;99.90
2202;DHT22;1107;48.654;9.250;2023-12-20T15:50:06;4.70;99.90
2202;DHT22;1107;48.654;9.250;2023-12-20T15:52:33;4.60;99.90
2202;DHT22;1107;48.654;9.250;2023-12-20T15:55:02;4.60;99.90
2202;DHT22;1107;48.654;9.250;2023-12-20T15:57:29;4.60;99.90
2202;DHT22;1107;48.654;9.250;2023-12-20T15:59:55;4.60;99.90
2202;DHT22;1107;48.654;9.250;2023-12-20T16:02:22;4.50;99.90
2202;DHT22;1107;48.654;9.250;2023-12-20T16:04:50;4.50;99.90
2202;DHT22;1107;48.654;9.250;2023-12-20T16:07:17;4.60;99.90
2202;DHT22;1107;48.654;9.250;2023-12-20T16:09:44;4.60;99.90
2202;DHT22;1107;48.654;9.250;2023-12-20T16:12:11;4.60;99.90
2202;DHT22;1107;48.654;9.250;2023-12-20T16:14:37;4.60;99.90
2202;DHT22;1107;48.654;9.250;2023-12-20T16:17:04;4.60;99.90